createdAt,value
2016-07-09T00:00:46.548Z,24.36
2016-07-09T00:01:46.548Z,24.42
2016-07-09T00:02:46.547Z,24.34
2016-07-09T00:03:46.571Z,24.33
2016-07-09T00:04:46.553Z,24.36
2016-07-09T00:05:46.557Z,24.37
2016-07-09T00:06:46.561Z,24.3
2016-07-09T00:07:46.565Z,24.29
2016-07-09T00:08:46.764Z,24.3
2016-07-09T00:09:46.567Z,24.33
2016-07-09T00:10:46.567Z,24.34
2016-07-09T00:11:46.566Z,24.33
2016-07-09T00:12:46.568Z,24.3
2016-07-09T00:13:46.777Z,24.29
2016-07-09T00:14:46.580Z,24.22
2016-07-09T00:15:46.575Z,24.21
2016-07-09T00:16:46.573Z,24.21
2016-07-09T00:17:46.582Z,24.18
2016-07-09T00:18:46.582Z,24.21
2016-07-09T00:19:46.590Z,24.24
2016-07-09T00:20:46.598Z,24.21
2016-07-09T00:21:46.644Z,24.14
2016-07-09T00:22:46.577Z,24.26
2016-07-09T00:23:46.591Z,24.19
2016-07-09T00:24:46.587Z,24.24
2016-07-09T00:25:46.799Z,24.22
2016-07-09T00:26:46.594Z,24.21
2016-07-09T00:27:46.595Z,24.21
2016-07-09T00:28:46.787Z,24.17
2016-07-09T00:29:46.601Z,24.15
2016-07-09T00:30:46.600Z,24.09
2016-07-09T00:31:46.608Z,24.11
2016-07-09T00:32:46.813Z,24.09
2016-07-09T00:33:46.604Z,24.14
2016-07-09T00:34:46.603Z,24.15
2016-07-09T00:35:46.628Z,24.12
2016-07-09T00:36:46.613Z,24.14
2016-07-09T00:37:46.613Z,24.14
2016-07-09T00:38:46.630Z,24.11
2016-07-09T00:39:46.620Z,24.22
2016-07-09T00:40:46.819Z,24.11
2016-07-09T00:41:46.621Z,24.09
2016-07-09T00:42:46.622Z,24.11
2016-07-09T00:43:46.629Z,24.11
2016-07-09T00:44:46.624Z,24.11
2016-07-09T00:45:46.629Z,24.14
2016-07-09T00:46:46.630Z,24.09
2016-07-09T00:47:46.634Z,24.11
2016-07-09T00:48:46.634Z,24.11
2016-07-09T00:49:46.633Z,24.11
2016-07-09T00:50:46.636Z,24.03
2016-07-09T00:51:46.637Z,23.99
2016-07-09T00:52:46.643Z,24.11
2016-07-09T00:53:46.641Z,24.07
2016-07-09T00:54:46.641Z,23.99
2016-07-09T00:55:46.645Z,24.03
2016-07-09T00:56:46.643Z,24
2016-07-09T00:57:46.651Z,24.11
2016-07-09T00:58:46.853Z,24.02
2016-07-09T00:59:46.651Z,24.02
2016-07-09T01:00:46.649Z,24.04
2016-07-09T01:01:46.655Z,24.04
2016-07-09T01:02:46.658Z,24
2016-07-09T01:03:46.659Z,24.07
2016-07-09T01:04:46.663Z,24
2016-07-09T01:05:46.860Z,24.04
2016-07-09T01:06:46.661Z,24.12
2016-07-09T01:07:46.872Z,24.08
2016-07-09T01:08:46.666Z,24.12
2016-07-09T01:09:46.670Z,24.02
2016-07-09T01:10:46.675Z,24.09
2016-07-09T01:11:46.674Z,24.03
2016-07-09T01:12:46.668Z,24.02
2016-07-09T01:13:46.677Z,23.99
2016-07-09T01:14:46.675Z,24.02
2016-07-09T01:15:46.675Z,23.97
2016-07-09T01:16:46.678Z,23.97
2016-07-09T01:17:46.684Z,24.07
2016-07-09T01:18:46.883Z,23.94
2016-07-09T01:19:46.690Z,24.08
2016-07-09T01:20:46.684Z,24.07
2016-07-09T01:21:46.734Z,24.03
2016-07-09T01:22:46.686Z,24.07
2016-07-09T01:23:46.891Z,24.07
2016-07-09T01:24:46.695Z,24.04
2016-07-09T01:25:46.695Z,23.94
2016-07-09T01:26:46.696Z,23.97
2016-07-09T01:27:46.697Z,24.02
2016-07-09T01:28:46.708Z,23.94
2016-07-09T01:29:46.701Z,24
2016-07-09T01:30:46.702Z,23.97
2016-07-09T01:31:46.704Z,23.93
2016-07-09T01:32:46.709Z,23.96
2016-07-09T01:33:46.710Z,23.96
2016-07-09T01:34:46.707Z,23.94
2016-07-09T01:35:46.714Z,23.94
2016-07-09T01:36:46.705Z,23.9
2016-07-09T01:37:46.917Z,23.96
2016-07-09T01:38:46.722Z,23.99
2016-07-09T01:39:46.716Z,23.93
2016-07-09T01:40:46.928Z,23.92
2016-07-09T01:41:46.716Z,23.85
2016-07-09T01:42:46.922Z,23.99
2016-07-09T01:43:46.711Z,23.9
2016-07-09T01:44:46.722Z,23.82
2016-07-09T01:45:46.740Z,23.93
2016-07-09T01:46:46.730Z,23.9
2016-07-09T01:47:46.723Z,23.89
2016-07-09T01:48:46.729Z,23.9
2016-07-09T01:49:46.725Z,23.92
2016-07-09T01:50:46.733Z,23.92
2016-07-09T01:51:46.734Z,23.85
2016-07-09T01:52:46.730Z,23.89
2016-07-09T01:53:46.741Z,23.94
2016-07-09T01:54:46.942Z,23.84
2016-07-09T01:55:46.740Z,23.85
2016-07-09T01:56:46.743Z,23.82
2016-07-09T01:57:46.759Z,23.89
2016-07-09T01:58:46.743Z,23.82
2016-07-09T01:59:46.742Z,23.89
2016-07-09T02:00:46.745Z,23.87
2016-07-09T02:01:46.750Z,23.9
2016-07-09T02:02:46.749Z,23.85
2016-07-09T02:03:46.746Z,23.82
2016-07-09T02:04:46.750Z,23.9
2016-07-09T02:05:46.760Z,23.78
2016-07-09T02:06:46.750Z,23.77
2016-07-09T02:07:46.761Z,23.84
2016-07-09T02:08:46.756Z,23.79
2016-07-09T02:09:46.757Z,23.89
2016-07-09T02:10:46.760Z,23.84
2016-07-09T02:11:46.754Z,23.85
2016-07-09T02:12:46.759Z,23.77
2016-07-09T02:13:46.764Z,23.84
2016-07-09T02:14:46.759Z,23.81
2016-07-09T02:15:46.762Z,23.85
2016-07-09T02:16:46.769Z,23.85
2016-07-09T02:17:46.978Z,23.81
2016-07-09T02:18:46.772Z,23.77
2016-07-09T02:19:46.777Z,23.79
2016-07-09T02:20:46.974Z,23.75
2016-07-09T02:21:46.823Z,23.72
2016-07-09T02:22:46.785Z,23.75
2016-07-09T02:23:46.774Z,23.77
2016-07-09T02:24:46.776Z,23.71
2016-07-09T02:25:46.779Z,23.72
2016-07-09T02:26:46.776Z,23.74
2016-07-09T02:27:46.779Z,23.77
2016-07-09T02:28:46.788Z,23.71
2016-07-09T02:29:46.785Z,23.77
2016-07-09T02:30:46.777Z,23.72
2016-07-09T02:31:46.801Z,23.75
2016-07-09T02:32:46.790Z,23.7
2016-07-09T02:33:46.791Z,23.72
2016-07-09T02:34:46.788Z,23.72
2016-07-09T02:35:46.791Z,23.71
2016-07-09T02:36:46.800Z,23.75
2016-07-09T02:37:46.786Z,23.66
2016-07-09T02:38:46.794Z,23.7
2016-07-09T02:39:46.793Z,23.7
2016-07-09T02:40:46.796Z,23.72
2016-07-09T02:41:47.000Z,23.72
2016-07-09T02:42:46.806Z,23.66
2016-07-09T02:43:46.805Z,23.66
2016-07-09T02:44:47.024Z,23.67
2016-07-09T02:45:46.808Z,23.67
2016-07-09T02:46:46.812Z,23.67
2016-07-09T02:47:46.811Z,23.64
2016-07-09T02:48:46.810Z,23.66
2016-07-09T02:49:46.820Z,23.63
2016-07-09T02:50:47.015Z,23.64
2016-07-09T02:51:46.817Z,23.64
2016-07-09T02:52:46.818Z,23.62
2016-07-09T02:53:46.823Z,23.66
2016-07-09T02:54:47.020Z,23.63
2016-07-09T02:55:46.830Z,23.63
2016-07-09T02:56:46.826Z,23.64
2016-07-09T02:57:46.837Z,23.6
2016-07-09T02:58:46.822Z,23.59
2016-07-09T02:59:46.826Z,23.6
2016-07-09T03:00:46.824Z,23.59
2016-07-09T03:01:46.829Z,23.6
2016-07-09T03:02:46.835Z,23.59
2016-07-09T03:03:46.827Z,23.63
2016-07-09T03:04:46.834Z,23.62
2016-07-09T03:05:47.034Z,23.6
2016-07-09T03:06:46.837Z,23.6
2016-07-09T03:07:46.851Z,23.6
2016-07-09T03:08:46.837Z,23.63
2016-07-09T03:09:46.836Z,23.5
2016-07-09T03:10:47.036Z,23.52
2016-07-09T03:11:47.038Z,23.57
2016-07-09T03:12:46.842Z,23.53
2016-07-09T03:13:46.839Z,23.48
2016-07-09T03:14:46.844Z,23.52
2016-07-09T03:15:46.843Z,23.52
2016-07-09T03:16:46.844Z,23.56
2016-07-09T03:17:46.851Z,23.55
2016-07-09T03:18:46.849Z,23.52
2016-07-09T03:19:46.856Z,23.62
2016-07-09T03:20:46.859Z,23.6
2016-07-09T03:21:46.899Z,23.55
2016-07-09T03:22:46.860Z,23.53
2016-07-09T03:23:46.854Z,23.57
2016-07-09T03:24:46.858Z,23.57
2016-07-09T03:25:46.858Z,23.56
2016-07-09T03:26:46.857Z,23.52
2016-07-09T03:27:46.861Z,23.55
2016-07-09T03:28:46.856Z,23.5
2016-07-09T03:29:46.860Z,23.53
2016-07-09T03:30:46.861Z,23.62
2016-07-09T03:31:46.882Z,23.62
2016-07-09T03:32:46.864Z,23.57
2016-07-09T03:33:46.866Z,23.57
2016-07-09T03:34:46.869Z,23.52
2016-07-09T03:35:46.873Z,23.48
2016-07-09T03:36:46.869Z,23.47
2016-07-09T03:37:46.871Z,23.48
2016-07-09T03:38:47.281Z,23.42
2016-07-09T03:39:46.871Z,23.47
2016-07-09T03:40:46.879Z,23.5
2016-07-09T03:41:46.875Z,23.5
2016-07-09T03:42:46.879Z,23.59
2016-07-09T03:43:46.872Z,23.5
2016-07-09T03:44:46.879Z,23.47
2016-07-09T03:45:46.884Z,23.45
2016-07-09T03:46:46.883Z,23.55
2016-07-09T03:47:46.882Z,23.47
2016-07-09T03:48:46.884Z,23.47
2016-07-09T03:49:47.079Z,23.48
2016-07-09T03:50:46.889Z,23.4
2016-07-09T03:51:46.888Z,23.45
2016-07-09T03:52:46.889Z,23.42
2016-07-09T03:53:47.091Z,23.42
2016-07-09T03:54:46.889Z,23.37
2016-07-09T03:55:46.892Z,23.38
2016-07-09T03:56:47.094Z,23.38
2016-07-09T03:57:46.893Z,23.38
2016-07-09T03:58:46.894Z,23.42
2016-07-09T03:59:46.892Z,23.38
2016-07-09T04:00:46.894Z,23.45
2016-07-09T04:01:47.097Z,23.38
2016-07-09T04:02:46.890Z,23.44
2016-07-09T04:03:46.906Z,23.47
2016-07-09T04:04:46.896Z,23.38
2016-07-09T04:05:47.106Z,23.41
2016-07-09T04:06:46.902Z,23.45
2016-07-09T04:07:46.902Z,23.4
2016-07-09T04:08:46.904Z,23.44
2016-07-09T04:09:47.108Z,23.38
2016-07-09T04:10:46.908Z,23.47
2016-07-09T04:11:47.116Z,23.47
2016-07-09T04:12:47.116Z,23.37
2016-07-09T04:13:46.906Z,23.4
2016-07-09T04:14:46.911Z,23.38
2016-07-09T04:15:46.915Z,23.38
2016-07-09T04:16:46.914Z,23.44
2016-07-09T04:17:46.923Z,23.38
2016-07-09T04:18:46.912Z,23.41
2016-07-09T04:19:46.921Z,23.34
2016-07-09T04:20:46.919Z,23.35
2016-07-09T04:21:46.967Z,23.25
2016-07-09T04:22:46.926Z,23.26
2016-07-09T04:23:46.920Z,23.45
2016-07-09T04:24:46.918Z,23.29
2016-07-09T04:25:46.927Z,23.32
2016-07-09T04:26:46.928Z,23.25
2016-07-09T04:27:46.924Z,23.26
2016-07-09T04:28:46.926Z,23.37
2016-07-09T04:29:47.129Z,23.24
2016-07-09T04:30:46.931Z,23.28
2016-07-09T04:31:46.932Z,23.22
2016-07-09T04:32:47.127Z,23.25
2016-07-09T04:33:46.933Z,23.22
2016-07-09T04:34:46.934Z,23.28
2016-07-09T04:35:46.930Z,23.26
2016-07-09T04:36:46.932Z,23.26
2016-07-09T04:37:46.933Z,23.34
2016-07-09T04:38:46.935Z,23.25
2016-07-09T04:39:46.937Z,23.24
2016-07-09T04:40:46.948Z,23.29
2016-07-09T04:41:46.934Z,23.21
2016-07-09T04:42:46.944Z,23.29
2016-07-09T04:43:46.943Z,23.29
2016-07-09T04:44:47.147Z,23.25
2016-07-09T04:45:46.941Z,23.21
2016-07-09T04:46:46.948Z,23.22
2016-07-09T04:47:46.947Z,23.24
2016-07-09T04:48:46.948Z,23.24
2016-07-09T04:49:46.951Z,23.19
2016-07-09T04:50:46.948Z,23.25
2016-07-09T04:51:46.949Z,23.22
2016-07-09T04:52:46.947Z,23.25
2016-07-09T04:53:46.950Z,23.22
2016-07-09T04:54:46.953Z,23.29
2016-07-09T04:55:47.154Z,23.16
2016-07-09T04:56:46.952Z,23.21
2016-07-09T04:57:46.953Z,23.28
2016-07-09T04:58:46.957Z,23.32
2016-07-09T04:59:46.951Z,23.29
2016-07-09T05:00:47.157Z,23.24
2016-07-09T05:01:47.164Z,23.22
2016-07-09T05:02:46.953Z,23.24
2016-07-09T05:03:46.963Z,23.24
2016-07-09T05:04:46.971Z,23.25
2016-07-09T05:05:46.970Z,23.24
2016-07-09T05:06:46.965Z,23.21
2016-07-09T05:07:46.958Z,23.16
2016-07-09T05:08:46.966Z,23.19
2016-07-09T05:09:47.165Z,23.18
2016-07-09T05:10:46.968Z,23.21
2016-07-09T05:11:46.965Z,23.18
2016-07-09T05:12:46.968Z,23.21
2016-07-09T05:13:46.963Z,23.16
2016-07-09T05:14:46.970Z,23.18
2016-07-09T05:15:46.970Z,23.18
2016-07-09T05:16:46.972Z,23.21
2016-07-09T05:17:46.975Z,23.21
2016-07-09T05:18:46.977Z,23.22
2016-07-09T05:19:46.972Z,23.15
2016-07-09T05:20:46.978Z,23.24
2016-07-09T05:21:47.028Z,23.22
2016-07-09T05:22:46.981Z,23.18
2016-07-09T05:23:46.981Z,23.24
2016-07-09T05:24:46.978Z,23.21
2016-07-09T05:25:46.976Z,23.18
2016-07-09T05:26:46.981Z,23.16
2016-07-09T05:27:47.181Z,23.14
2016-07-09T05:28:46.981Z,23.19
2016-07-09T05:29:46.989Z,23.14
2016-07-09T05:30:46.987Z,23.19
2016-07-09T05:31:46.988Z,23.19
2016-07-09T05:32:46.990Z,23.21
2016-07-09T05:33:46.991Z,23.21
2016-07-09T05:34:46.994Z,23.21
2016-07-09T05:35:46.985Z,23.21
2016-07-09T05:36:46.990Z,23.21
2016-07-09T05:37:46.992Z,23.18
2016-07-09T05:38:46.991Z,23.19
2016-07-09T05:39:46.989Z,23.14
2016-07-09T05:40:46.990Z,23.19
2016-07-09T05:41:46.995Z,23.15
2016-07-09T05:42:46.997Z,23.15
2016-07-09T05:43:46.998Z,23.16
2016-07-09T05:44:47.196Z,23.18
2016-07-09T05:45:46.995Z,23.14
2016-07-09T05:46:46.992Z,23.19
2016-07-09T05:47:46.998Z,23.15
2016-07-09T05:48:47.003Z,23.16
2016-07-09T05:49:47.017Z,23.18
2016-07-09T05:50:47.003Z,23.14
2016-07-09T05:51:46.999Z,23.16
2016-07-09T05:52:47.004Z,23.14
2016-07-09T05:53:47.007Z,23.16
2016-07-09T05:54:47.020Z,23.16
2016-07-09T05:55:47.014Z,23.16
2016-07-09T05:56:47.005Z,23.18
2016-07-09T05:57:47.010Z,23.12
2016-07-09T05:58:47.004Z,23.18
2016-07-09T05:59:47.009Z,23.16
2016-07-09T06:00:47.006Z,23.12
2016-07-09T06:01:47.011Z,23.18
2016-07-09T06:02:47.011Z,23.18
2016-07-09T06:03:47.015Z,23.16
2016-07-09T06:04:47.014Z,23.16
2016-07-09T06:05:47.011Z,23.12
2016-07-09T06:06:47.019Z,23.15
2016-07-09T06:07:47.018Z,23.18
2016-07-09T06:08:47.019Z,23.15
2016-07-09T06:09:47.018Z,23.16
2016-07-09T06:10:47.022Z,23.14
2016-07-09T06:11:47.022Z,23.18
2016-07-09T06:12:47.020Z,23.18
2016-07-09T06:13:47.023Z,23.14
2016-07-09T06:14:47.026Z,23.18
2016-07-09T06:15:47.226Z,23.16
2016-07-09T06:16:47.029Z,23.18
2016-07-09T06:17:47.026Z,23.19
2016-07-09T06:18:47.030Z,23.18
2016-07-09T06:19:47.024Z,23.14
2016-07-09T06:20:47.022Z,23.14
2016-07-09T06:21:47.079Z,23.16
2016-07-09T06:22:47.031Z,23.21
2016-07-09T06:23:47.030Z,23.14
2016-07-09T06:24:47.028Z,23.14
2016-07-09T06:25:47.032Z,23.15
2016-07-09T06:26:47.042Z,23.25
2016-07-09T06:27:47.241Z,23.15
2016-07-09T06:28:47.037Z,23.14
2016-07-09T06:29:47.041Z,23.19
2016-07-09T06:30:47.240Z,23.14
2016-07-09T06:31:47.035Z,23.19
2016-07-09T06:32:47.039Z,23.14
2016-07-09T06:33:47.035Z,23.14
2016-07-09T06:34:47.036Z,23.14
2016-07-09T06:35:47.255Z,23.14
2016-07-09T06:36:47.242Z,23.22
2016-07-09T06:37:47.040Z,23.15
2016-07-09T06:38:47.040Z,23.15
2016-07-09T06:39:47.044Z,23.18
2016-07-09T06:40:47.046Z,23.21
2016-07-09T06:41:47.063Z,23.19
2016-07-09T06:42:47.050Z,23.14
2016-07-09T06:43:47.046Z,23.19
2016-07-09T06:44:47.052Z,23.22
2016-07-09T06:45:47.049Z,23.18
2016-07-09T06:46:47.048Z,23.26
2016-07-09T06:47:47.053Z,23.24
2016-07-09T06:48:47.047Z,23.21
2016-07-09T06:49:47.052Z,23.24
2016-07-09T06:50:47.049Z,23.22
2016-07-09T06:51:47.458Z,23.18
2016-07-09T06:52:47.060Z,23.29
2016-07-09T06:53:47.255Z,23.24
2016-07-09T06:54:47.056Z,23.21
2016-07-09T06:55:47.054Z,23.28
2016-07-09T06:56:47.056Z,23.22
2016-07-09T06:57:47.058Z,23.16
2016-07-09T06:58:47.074Z,23.22
2016-07-09T06:59:47.058Z,23.1
2016-07-09T07:00:47.057Z,23.07
2016-07-09T07:01:47.279Z,22.97
2016-07-09T07:02:47.065Z,22.88
2016-07-09T07:03:47.064Z,22.88
2016-07-09T07:04:47.067Z,22.88
2016-07-09T07:05:47.067Z,22.82
2016-07-09T07:06:47.069Z,22.49
2016-07-09T07:07:47.098Z,22.05
2016-07-09T07:08:47.284Z,21.61
2016-07-09T07:09:47.075Z,21.27
2016-07-09T07:10:47.075Z,20.94
2016-07-09T07:11:47.069Z,20.67
2016-07-09T07:12:47.067Z,20.46
2016-07-09T07:13:47.068Z,20.3
2016-07-09T07:14:47.070Z,20.26
2016-07-09T07:15:47.082Z,20.11
2016-07-09T07:16:47.267Z,19.98
2016-07-09T07:17:47.067Z,19.97
2016-07-09T07:18:47.266Z,19.89
2016-07-09T07:19:47.062Z,19.83
2016-07-09T07:20:47.069Z,19.75
2016-07-09T07:21:47.116Z,19.68
2016-07-09T07:22:47.058Z,19.65
2016-07-09T07:23:47.062Z,19.56
2016-07-09T07:24:47.062Z,19.61
2016-07-09T07:25:47.056Z,19.5
2016-07-09T07:26:47.053Z,19.57
2016-07-09T07:27:47.055Z,19.57
2016-07-09T07:28:47.055Z,19.57
2016-07-09T07:29:47.053Z,19.5
2016-07-09T07:30:47.051Z,19.55
2016-07-09T07:31:47.168Z,19.45
2016-07-09T07:32:47.361Z,19.47
2016-07-09T07:33:47.450Z,19.57
2016-07-09T07:34:47.127Z,19.5
2016-07-09T07:35:47.035Z,19.5
2016-07-09T07:36:47.034Z,19.5
2016-07-09T07:37:47.035Z,19.43
2016-07-09T07:38:48.514Z,19.46
2016-07-09T07:39:47.033Z,19.45
2016-07-09T07:40:47.025Z,19.45
2016-07-09T07:41:47.022Z,19.47
2016-07-09T07:42:47.021Z,19.46
2016-07-09T07:43:47.032Z,19.47
2016-07-09T07:44:47.012Z,19.43
2016-07-09T07:45:47.022Z,19.56
2016-07-09T07:46:47.015Z,19.52
2016-07-09T07:47:47.008Z,19.52
2016-07-09T07:48:47.614Z,19.52
2016-07-09T07:49:46.999Z,19.56
2016-07-09T07:50:47.000Z,19.5
2016-07-09T07:51:46.989Z,19.61
2016-07-09T07:52:46.997Z,19.49
2016-07-09T07:53:46.994Z,19.49
2016-07-09T07:54:46.992Z,19.52
2016-07-09T07:55:46.987Z,19.6
2016-07-09T07:56:46.985Z,19.61
2016-07-09T07:57:46.979Z,19.61
2016-07-09T07:58:46.981Z,19.6
2016-07-09T07:59:46.990Z,19.6
2016-07-09T08:00:46.979Z,19.56
2016-07-09T08:01:47.164Z,19.61
2016-07-09T08:02:46.965Z,19.56
2016-07-09T08:03:46.959Z,19.74
2016-07-09T08:04:46.966Z,19.57
2016-07-09T08:05:47.167Z,19.68
2016-07-09T08:07:03.917Z,19.61
2016-07-09T08:08:00.507Z,19.63
2016-07-09T08:09:02.551Z,19.56
2016-07-09T08:10:12.242Z,19.67
2016-07-09T08:11:05.443Z,19.65
2016-07-09T08:12:11.518Z,19.68
2016-07-09T08:12:49.458Z,19.64
2016-07-09T08:13:46.927Z,19.68
2016-07-09T08:14:46.935Z,19.68
2016-07-09T08:15:47.023Z,19.68
2016-07-09T08:16:46.928Z,19.67
2016-07-09T08:17:46.925Z,19.64
2016-07-09T08:18:48.726Z,19.78
2016-07-09T08:19:46.917Z,19.72
2016-07-09T08:20:46.906Z,19.74
2016-07-09T08:21:46.909Z,19.82
2016-07-09T08:22:47.118Z,19.8
2016-07-09T08:23:46.965Z,19.79
2016-07-09T08:24:47.291Z,19.8
2016-07-09T08:25:46.896Z,19.82
2016-07-09T08:26:46.899Z,19.82
2016-07-09T08:27:46.889Z,19.82
2016-07-09T08:28:46.902Z,19.78
2016-07-09T08:29:46.893Z,19.75
2016-07-09T08:30:46.879Z,19.8
2016-07-09T08:31:46.881Z,19.9
2016-07-09T08:32:46.878Z,19.78
2016-07-09T08:33:46.870Z,19.89
2016-07-09T08:34:46.992Z,19.97
2016-07-09T08:35:46.869Z,19.93
2016-07-09T08:36:47.070Z,19.86
2016-07-09T08:37:46.862Z,19.89
2016-07-09T08:38:46.854Z,20
2016-07-09T08:39:46.858Z,19.98
2016-07-09T08:40:46.854Z,19.89
2016-07-09T08:41:46.852Z,20.04
2016-07-09T08:42:47.047Z,20.01
2016-07-09T08:43:47.480Z,19.92
2016-07-09T08:44:46.832Z,19.92
2016-07-09T08:45:46.837Z,20
2016-07-09T08:46:46.854Z,19.93
2016-07-09T08:47:46.843Z,19.93
2016-07-09T08:48:46.823Z,20.05
2016-07-09T08:49:46.825Z,19.98
2016-07-09T08:50:46.813Z,20.07
2016-07-09T08:51:46.811Z,20.02
2016-07-09T08:52:46.957Z,20.05
2016-07-09T08:53:46.811Z,20.15
2016-07-09T08:54:46.998Z,20.12
2016-07-09T08:55:46.999Z,20.16
2016-07-09T08:56:46.799Z,20.1
2016-07-09T08:57:46.846Z,20.08
2016-07-09T08:58:46.794Z,20.18
2016-07-09T08:59:46.793Z,20.12
2016-07-09T09:00:46.791Z,20.12
2016-07-09T09:01:46.788Z,20.07
2016-07-09T09:02:46.785Z,20.11
2016-07-09T09:03:46.776Z,20.16
2016-07-09T09:04:46.792Z,20.12
2016-07-09T09:05:46.772Z,20.16
2016-07-09T09:06:46.771Z,20.19
2016-07-09T09:07:46.778Z,20.19
2016-07-09T09:08:49.470Z,20.23
2016-07-09T09:09:46.770Z,20.25
2016-07-09T09:10:46.759Z,20.2
2016-07-09T09:11:46.758Z,20.25
2016-07-09T09:12:46.748Z,20.22
2016-07-09T09:13:46.749Z,20.2
2016-07-09T09:14:46.747Z,20.27
2016-07-09T09:15:46.940Z,20.26
2016-07-09T09:16:46.740Z,20.19
2016-07-09T09:17:46.735Z,20.29
2016-07-09T09:18:46.732Z,20.22
2016-07-09T09:19:46.805Z,20.26
2016-07-09T09:20:46.721Z,20.23
2016-07-09T09:21:46.722Z,20.3
2016-07-09T09:22:46.719Z,20.26
2016-07-09T09:23:46.725Z,20.32
2016-07-09T09:24:46.727Z,20.37
2016-07-09T09:25:46.729Z,20.27
2016-07-09T09:26:46.851Z,20.29
2016-07-09T09:27:46.710Z,20.27
2016-07-09T09:28:46.706Z,20.27
2016-07-09T09:29:46.701Z,20.25
2016-07-09T09:30:46.700Z,20.35
2016-07-09T09:31:46.783Z,20.35
2016-07-09T09:32:46.695Z,20.34
2016-07-09T09:33:46.693Z,20.41
2016-07-09T09:34:46.937Z,20.4
2016-07-09T09:35:46.686Z,20.42
2016-07-09T09:36:46.785Z,20.27
2016-07-09T09:37:46.816Z,20.42
2016-07-09T09:38:46.674Z,20.38
2016-07-09T09:39:46.676Z,20.44
2016-07-09T09:40:48.003Z,20.44
2016-07-09T09:41:46.673Z,20.42
2016-07-09T09:42:46.663Z,20.42
2016-07-09T09:43:46.661Z,20.48
2016-07-09T09:44:46.677Z,20.42
2016-07-09T09:45:46.705Z,20.4
2016-07-09T09:46:46.649Z,20.42
2016-07-09T09:47:46.705Z,20.49
2016-07-09T09:48:46.663Z,20.49
2016-07-09T09:49:46.639Z,20.53
2016-07-09T09:50:46.652Z,20.37
2016-07-09T09:51:46.633Z,20.49
2016-07-09T09:52:46.638Z,20.44
2016-07-09T09:53:46.634Z,20.41
2016-07-09T09:54:46.635Z,20.53
2016-07-09T09:55:46.625Z,20.53
2016-07-09T09:56:46.625Z,20.51
2016-07-09T09:57:46.822Z,20.49
2016-07-09T09:58:46.820Z,20.54
2016-07-09T09:59:46.617Z,20.57
2016-07-09T10:00:46.612Z,20.54
2016-07-09T10:01:46.606Z,20.51
2016-07-09T10:02:46.608Z,20.61
2016-07-09T10:03:46.601Z,20.51
2016-07-09T10:04:50.335Z,20.57
2016-07-09T10:05:46.599Z,20.53
2016-07-09T10:06:46.596Z,20.64
2016-07-09T10:07:46.590Z,20.58
2016-07-09T10:08:46.589Z,20.61
2016-07-09T10:09:46.585Z,20.6
2016-07-09T10:10:46.579Z,20.53
2016-07-09T10:11:46.583Z,20.71
2016-07-09T10:12:46.579Z,20.82
2016-07-09T10:13:46.578Z,21.16
2016-07-09T10:14:46.581Z,21.45
2016-07-09T10:15:46.571Z,21.64
2016-07-09T10:16:46.576Z,21.8
2016-07-09T10:17:46.568Z,21.99
2016-07-09T10:18:46.566Z,22.15
2016-07-09T10:19:46.765Z,22.22
2016-07-09T10:20:46.560Z,22.41
2016-07-09T10:21:46.697Z,22.54
2016-07-09T10:22:46.553Z,22.63
2016-07-09T10:23:46.550Z,22.63
2016-07-09T10:24:46.554Z,22.76
2016-07-09T10:25:46.550Z,22.84
2016-07-09T10:26:46.767Z,22.85
2016-07-09T10:27:46.542Z,22.91
2016-07-09T10:28:46.551Z,23.04
2016-07-09T10:29:46.738Z,23.1
2016-07-09T10:30:46.542Z,23.18
2016-07-09T10:31:46.563Z,23.16
2016-07-09T10:32:46.534Z,23.24
2016-07-09T10:33:46.537Z,23.38
2016-07-09T10:34:46.540Z,23.4
2016-07-09T10:35:46.534Z,23.41
2016-07-09T10:36:46.537Z,23.56
2016-07-09T10:37:46.533Z,23.57
2016-07-09T10:38:46.540Z,23.63
2016-07-09T10:39:46.535Z,23.59
2016-07-09T10:40:46.534Z,23.75
2016-07-09T10:41:46.537Z,23.78
2016-07-09T10:42:46.552Z,23.75
2016-07-09T10:43:46.534Z,23.85
2016-07-09T10:44:46.728Z,23.89
2016-07-09T10:45:46.534Z,23.93
2016-07-09T10:46:46.532Z,23.87
2016-07-09T10:47:46.533Z,23.96
2016-07-09T10:48:46.529Z,24.04
2016-07-09T10:49:46.547Z,24.08
2016-07-09T10:50:46.542Z,24.03
2016-07-09T10:51:46.535Z,24.11
2016-07-09T10:52:46.536Z,24.11
2016-07-09T10:53:46.544Z,24.11
2016-07-09T10:54:46.531Z,24.17
2016-07-09T10:55:46.535Z,24.15
2016-07-09T10:56:46.540Z,24.21
2016-07-09T10:57:46.552Z,24.27
2016-07-09T10:58:46.540Z,24.3
2016-07-09T10:59:46.548Z,24.33
2016-07-09T11:00:46.543Z,24.39
2016-07-09T11:01:46.540Z,24.4
2016-07-09T11:02:46.759Z,24.46
2016-07-09T11:03:46.542Z,24.49
2016-07-09T11:04:57.193Z,24.54
2016-07-09T11:06:06.133Z,24.61
2016-07-09T11:06:57.977Z,24.58
2016-07-09T11:07:46.752Z,24.69
2016-07-09T11:08:46.543Z,24.71
2016-07-09T11:09:46.544Z,24.8
2016-07-09T11:10:46.549Z,24.67
2016-07-09T11:11:46.550Z,24.71
2016-07-09T11:12:46.757Z,24.75
2016-07-09T11:13:46.555Z,24.74
2016-07-09T11:14:46.558Z,24.75
2016-07-09T11:15:46.556Z,24.77
2016-07-09T11:16:46.567Z,24.86
2016-07-09T11:17:46.556Z,24.93
2016-07-09T11:18:46.766Z,24.96
2016-07-09T11:19:46.573Z,25.02
2016-07-09T11:20:46.562Z,25.07
2016-07-09T11:21:46.567Z,25.07
2016-07-09T11:22:46.568Z,25.15
2016-07-09T11:23:46.574Z,25.15
2016-07-09T11:24:46.578Z,25.17
2016-07-09T11:25:46.567Z,25.15
2016-07-09T11:26:46.585Z,25.09
2016-07-09T11:27:46.577Z,25.24
2016-07-09T11:28:46.581Z,25.27
2016-07-09T11:29:46.584Z,25.37
2016-07-09T11:30:46.592Z,25.34
2016-07-09T11:31:46.581Z,25.37
2016-07-09T11:32:46.588Z,25.38
2016-07-09T11:33:46.590Z,25.48
2016-07-09T11:34:46.593Z,25.45
2016-07-09T11:35:46.603Z,25.52
2016-07-09T11:36:46.591Z,25.48
2016-07-09T11:37:46.598Z,25.57
2016-07-09T11:38:46.600Z,25.56
2016-07-09T11:39:46.598Z,25.63
2016-07-09T11:40:46.598Z,25.63
2016-07-09T11:41:46.595Z,25.6
2016-07-09T11:42:46.598Z,25.56
2016-07-09T11:43:46.606Z,25.66
2016-07-09T11:44:46.601Z,25.62
2016-07-09T11:45:46.611Z,25.62
2016-07-09T11:46:46.618Z,25.69
2016-07-09T11:47:46.611Z,25.67
2016-07-09T11:48:46.616Z,25.69
2016-07-09T11:49:46.612Z,25.81
2016-07-09T11:50:46.821Z,25.84
2016-07-09T11:51:46.619Z,25.81
2016-07-09T11:52:46.620Z,25.86
2016-07-09T11:53:46.631Z,25.88
2016-07-09T11:54:46.635Z,25.96
2016-07-09T11:55:46.635Z,25.89
2016-07-09T11:56:46.628Z,25.86
2016-07-09T11:57:46.636Z,25.88
2016-07-09T11:58:46.639Z,25.97
2016-07-09T11:59:46.636Z,25.94
2016-07-09T12:00:52.315Z,25.94
2016-07-09T12:01:48.300Z,25.94
2016-07-09T12:02:48.757Z,25.96
2016-07-09T12:03:48.953Z,25.93
2016-07-09T12:04:51.014Z,26
2016-07-09T12:05:50.254Z,26.03
2016-07-09T12:06:49.437Z,26.07
2016-07-09T12:07:51.110Z,26.16
2016-07-09T12:08:50.401Z,26.17
2016-07-09T12:09:51.363Z,26.19
2016-07-09T12:10:46.872Z,26.16
2016-07-09T12:11:46.666Z,26.24
2016-07-09T12:12:46.677Z,26.23
2016-07-09T12:13:46.666Z,26.27
2016-07-09T12:14:46.872Z,26.34
2016-07-09T12:15:46.680Z,26.3
2016-07-09T12:16:46.671Z,26.31
2016-07-09T12:17:46.674Z,26.34
2016-07-09T12:18:46.684Z,26.3
2016-07-09T12:19:46.688Z,26.3
2016-07-09T12:20:47.092Z,26.32
2016-07-09T12:21:46.694Z,26.27
2016-07-09T12:22:46.691Z,26.38
2016-07-09T12:23:46.697Z,26.35
2016-07-09T12:24:46.698Z,26.35
2016-07-09T12:25:46.697Z,26.34
2016-07-09T12:26:46.703Z,26.3
2016-07-09T12:27:46.699Z,26.31
2016-07-09T12:28:46.708Z,26.37
2016-07-09T12:29:46.726Z,26.27
2016-07-09T12:30:46.706Z,26.39
2016-07-09T12:31:46.720Z,26.34
2016-07-09T12:32:46.728Z,26.32
2016-07-09T12:33:46.719Z,26.24
2016-07-09T12:34:46.727Z,26.32
2016-07-09T12:35:46.726Z,26.24
2016-07-09T12:36:46.727Z,26.32
2016-07-09T12:37:46.741Z,26.41
2016-07-09T12:38:46.759Z,26.34
2016-07-09T12:39:46.739Z,26.41
2016-07-09T12:40:46.742Z,26.39
2016-07-09T12:41:46.748Z,26.39
2016-07-09T12:42:46.750Z,26.38
2016-07-09T12:43:46.752Z,26.41
2016-07-09T12:44:46.752Z,26.37
2016-07-09T12:45:46.754Z,26.41
2016-07-09T12:46:46.758Z,26.35
2016-07-09T12:47:46.763Z,26.35
2016-07-09T12:48:46.762Z,26.39
2016-07-09T12:49:46.767Z,26.35
2016-07-09T12:50:46.768Z,26.34
2016-07-09T12:51:46.769Z,26.41
2016-07-09T12:52:46.776Z,26.47
2016-07-09T12:53:46.786Z,26.47
2016-07-09T12:54:46.806Z,26.44
2016-07-09T12:55:46.784Z,26.52